Time;durP1;ratioP1;P1;durP2;ratioP2;P2;SDS_P1;SDS_P2;PMS_P1;PMS_P2;Temp;Humidity;BMP_temperature;BMP_pressure;BME280_temperature;BME280_humidity;BME280_pressure;Samples;Min_cycle;Max_cycle;Signal;HPM_P1;HPM_P2
2023/05/20 00:00:32;;;;;;;5.77;3.90;;;;;;;15.24;57.52;97563.66;5010999;28;20435;-68
2023/05/20 00:02:59;;;;;;;5.67;4.00;;;;;;;15.24;57.75;97558.38;5015907;28;20219;-70
2023/05/20 00:05:25;;;;;;;7.70;4.70;;;;;;;15.12;58.48;97563.22;5019444;28;20200;-69
2023/05/20 00:07:50;;;;;;;5.30;4.17;;;;;;;15.14;58.52;97558.59;5014979;28;20423;-70
2023/05/20 00:10:15;;;;;;;7.07;3.80;;;;;;;15.18;58.22;97560.69;5014112;28;20203;-68
2023/05/20 00:12:41;;;;;;;5.90;4.37;;;;;;;15.11;58.64;97564.19;5013480;28;20226;-69
2023/05/20 00:15:07;;;;;;;8.90;4.70;;;;;;;15.09;58.47;97567.03;5017902;28;20693;-69
2023/05/20 00:17:32;;;;;;;8.27;4.50;;;;;;;15.05;58.36;97560.44;5012136;28;20185;-68
2023/05/20 00:19:59;;;;;;;6.20;3.93;;;;;;;15.07;58.23;97561.09;5007247;28;21192;-69
2023/05/20 00:22:24;;;;;;;4.57;3.83;;;;;;;15.02;58.32;97563.41;5010078;28;20246;-69
2023/05/20 00:24:50;;;;;;;5.40;4.27;;;;;;;15.03;58.26;97557.97;5011634;28;20529;-69
2023/05/20 00:27:15;;;;;;;6.40;3.90;;;;;;;15.10;58.39;97552.00;5050147;28;20576;-68
2023/05/20 00:29:40;;;;;;;4.90;3.80;;;;;;;15.10;58.49;97552.84;5015877;28;20187;-69
2023/05/20 00:32:06;;;;;;;4.87;4.00;;;;;;;15.17;58.37;97556.41;5017738;28;20619;-69
2023/05/20 00:34:31;;;;;;;7.80;4.40;;;;;;;15.19;58.30;97546.50;5018617;28;20216;-69
2023/05/20 00:36:57;;;;;;;7.07;4.17;;;;;;;15.15;58.22;97550.47;5019172;28;20200;-69
2023/05/20 00:39:23;;;;;;;9.10;4.60;;;;;;;15.22;58.09;97549.81;5011646;28;20220;-70
2023/05/20 00:41:48;;;;;;;6.87;4.80;;;;;;;15.22;58.30;97550.63;5015901;28;20461;-69
2023/05/20 00:44:14;;;;;;;7.60;4.20;;;;;;;15.22;58.36;97544.53;5016047;28;20252;-71
2023/05/20 00:46:39;;;;;;;8.30;4.13;;;;;;;15.24;58.46;97559.19;5020602;28;20192;-69
2023/05/20 00:49:05;;;;;;;8.30;5.30;;;;;;;15.28;58.11;97557.84;5018189;28;20196;-70
2023/05/20 00:51:30;;;;;;;9.23;5.47;;;;;;;15.30;58.03;97553.22;5017438;28;20196;-70
2023/05/20 00:53:56;;;;;;;7.97;5.63;;;;;;;15.33;57.98;97552.84;5008866;28;20223;-69
2023/05/20 00:56:22;;;;;;;9.03;5.03;;;;;;;15.35;58.03;97542.94;5016006;28;20203;-69
2023/05/20 00:58:48;;;;;;;6.77;5.30;;;;;;;15.38;58.08;97544.41;5012019;28;20192;-69
2023/05/20 01:01:14;;;;;;;5.80;4.63;;;;;;;15.39;58.06;97542.59;5018505;28;20222;-69
2023/05/20 01:03:40;;;;;;;4.47;3.90;;;;;;;15.38;58.19;97539.13;5011238;28;20471;-69
2023/05/20 01:06:05;;;;;;;6.50;4.77;;;;;;;15.31;58.65;97540.84;5018136;28;20242;-69
2023/05/20 01:08:31;;;;;;;10.10;4.17;;;;;;;15.26;58.77;97540.53;5014949;28;20192;-69
2023/05/20 01:11:03;;;;;;;4.90;4.10;;;;;;;15.26;58.99;97540.53;5017940;28;20219;-69
2023/05/20 01:13:33;;;;;;;5.80;4.40;;;;;;;15.31;58.68;97533.72;5014847;28;20299;-69
2023/05/20 01:16:00;;;;;;;7.27;4.23;;;;;;;15.28;58.77;97541.16;5019675;28;20752;-69
2023/05/20 01:18:29;;;;;;;5.73;4.30;;;;;;;15.31;58.28;97536.34;5013800;28;20442;-68
2023/05/20 01:20:54;;;;;;;4.73;4.33;;;;;;;15.29;58.52;97540.19;5018948;28;20846;-68
2023/05/20 01:23:20;;;;;;;6.60;5.27;;;;;;;15.35;58.30;97532.38;5009025;28;20497;-67
2023/05/20 01:25:46;;;;;;;6.90;4.33;;;;;;;15.39;58.44;97539.97;5010734;28;20250;-68
2023/05/20 01:28:16;;;;;;;9.70;4.37;;;;;;;15.45;57.99;97518.97;5011618;28;20435;-69
2023/05/20 01:30:47;;;;;;;5.97;4.70;;;;;;;15.45;57.73;97524.25;5019477;28;20287;-68
2023/05/20 01:33:14;;;;;;;11.20;4.77;;;;;;;15.43;58.12;97520.94;5008914;28;20463;-70
2023/05/20 01:35:40;;;;;;;5.97;4.90;;;;;;;15.39;58.43;97518.84;5010382;28;20435;-69
2023/05/20 01:38:06;;;;;;;5.93;5.00;;;;;;;15.42;58.52;97518.50;5010006;28;20440;-69
2023/05/20 01:40:33;;;;;;;8.30;4.90;;;;;;;15.43;58.45;97520.94;5019153;28;20435;-69
2023/05/20 01:42:58;;;;;;;6.30;5.10;;;;;;;15.44;58.26;97511.19;5008804;28;20475;-69
2023/05/20 01:45:24;;;;;;;5.47;4.67;;;;;;;15.42;58.17;97521.94;5013086;28;20442;-69
2023/05/20 01:47:49;;;;;;;4.80;4.20;;;;;;;15.46;58.29;97511.84;5010810;28;20188;-70
2023/05/20 01:50:15;;;;;;;8.87;4.57;;;;;;;15.48;58.34;97515.13;5019999;28;20858;-68
2023/05/20 01:52:40;;;;;;;5.20;4.53;;;;;;;15.50;58.29;97508.66;5012294;28;20361;-69
2023/05/20 01:55:06;;;;;;;6.03;4.97;;;;;;;15.50;58.36;97510.50;5019089;28;20206;-70
2023/05/20 01:57:31;;;;;;;7.37;4.73;;;;;;;15.51;58.19;97520.88;5012356;28;20633;-69
2023/05/20 01:59:57;;;;;;;6.00;4.50;;;;;;;15.55;58.10;97512.63;5011749;28;20576;-69
2023/05/20 02:02:22;;;;;;;5.83;5.20;;;;;;;15.57;58.29;97514.06;5015937;28;20282;-68
2023/05/20 02:04:50;;;;;;;5.20;4.70;;;;;;;15.56;58.64;97515.09;5016720;28;20580;-69
2023/05/20 02:07:20;;;;;;;5.10;4.60;;;;;;;15.54;58.49;97516.25;5010188;28;20661;-69
2023/05/20 02:09:46;;;;;;;7.33;4.60;;;;;;;15.52;58.71;97504.03;5016005;28;20644;-69
2023/05/20 02:12:15;;;;;;;5.53;4.40;;;;;;;15.49;58.97;97504.41;5010125;28;20531;-68
2023/05/20 02:14:45;;;;;;;8.70;5.43;;;;;;;15.48;59.31;97502.75;5016062;28;20442;-69
2023/05/20 02:17:11;;;;;;;5.50;4.67;;;;;;;15.49;58.90;97507.06;5020356;28;20434;-69
2023/05/20 02:19:37;;;;;;;7.50;5.33;;;;;;;15.47;58.86;97506.41;5009440;28;20550;-69
2023/05/20 02:22:02;;;;;;;8.10;5.90;;;;;;;15.47;58.70;97508.19;5009208;28;20884;-69
2023/05/20 02:24:27;;;;;;;7.80;7.00;;;;;;;15.47;58.83;97506.41;5014968;28;20285;-69
2023/05/20 02:26:54;;;;;;;11.10;8.90;;;;;;;15.47;58.71;97510.84;5010725;28;20192;-68
2023/05/20 02:29:21;;;;;;;18.63;10.63;;;;;;;15.39;59.06;97510.91;5014049;28;20198;-68
2023/05/20 02:31:46;;;;;;;12.10;10.20;;;;;;;15.35;59.22;97508.63;5012114;28;20434;-69
2023/05/20 02:34:12;;;;;;;9.70;8.50;;;;;;;15.31;59.01;97517.06;5014825;28;20864;-69
2023/05/20 02:36:37;;;;;;;8.50;7.27;;;;;;;15.30;59.24;97512.78;5019591;28;20465;-69
2023/05/20 02:39:03;;;;;;;7.57;6.07;;;;;;;15.30;59.23;97504.84;5011554;28;20229;-68
2023/05/20 02:41:28;;;;;;;10.80;6.10;;;;;;;15.22;59.28;97510.19;5013009;28;20192;-69
2023/05/20 02:43:54;;;;;;;6.53;5.33;;;;;;;15.20;59.40;97505.91;5013395;28;20247;-69
2023/05/20 02:46:19;;;;;;;6.37;5.70;;;;;;;15.14;59.53;97514.50;5012785;28;20727;-69
2023/05/20 02:48:45;;;;;;;7.03;5.67;;;;;;;15.10;60.08;97513.25;5011687;28;20253;-69
2023/05/20 02:51:10;;;;;;;7.27;6.40;;;;;;;15.08;59.99;97501.19;5014041;28;20188;-67
2023/05/20 02:53:36;;;;;;;8.90;5.60;;;;;;;15.14;59.79;97511.06;5014814;28;20700;-68
2023/05/20 02:56:04;;;;;;;7.10;5.10;;;;;;;15.13;59.72;97510.22;5014666;28;20653;-69
2023/05/20 02:58:30;;;;;;;6.13;5.53;;;;;;;15.18;59.50;97513.19;5018346;28;20275;-68
2023/05/20 03:00:56;;;;;;;7.73;5.30;;;;;;;15.20;59.54;97505.91;5017990;28;20535;-68
2023/05/20 03:03:23;;;;;;;10.00;5.87;;;;;;;15.22;59.45;97512.84;5013160;28;20219;-67
2023/05/20 03:05:49;;;;;;;6.83;5.63;;;;;;;15.22;59.78;97513.66;5018436;28;20487;-68
2023/05/20 03:08:14;;;;;;;6.23;5.33;;;;;;;15.16;59.99;97520.44;5012101;28;20439;-69
2023/05/20 03:10:40;;;;;;;6.73;6.03;;;;;;;15.15;60.04;97512.72;5015489;28;20295;-68
2023/05/20 03:13:07;;;;;;;5.80;5.10;;;;;;;15.17;59.95;97510.72;5011874;28;20638;-70
2023/05/20 03:15:40;;;;;;;5.80;5.00;;;;;;;15.15;59.97;97510.06;5016386;28;20192;-70
2023/05/20 03:18:07;;;;;;;5.83;5.23;;;;;;;15.16;59.81;97506.44;5011333;28;20419;-69
2023/05/20 03:20:35;;;;;;;6.90;5.37;;;;;;;15.18;59.94;97509.72;5008032;28;20444;-69
2023/05/20 03:23:01;;;;;;;8.53;5.57;;;;;;;15.10;60.04;97515.03;5008308;28;20471;-70
2023/05/20 03:25:26;;;;;;;6.87;5.43;;;;;;;15.05;60.34;97512.94;5012104;28;20454;-70
2023/05/20 03:27:52;;;;;;;7.10;5.97;;;;;;;15.07;60.21;97510.09;5009870;28;20195;-70
2023/05/20 03:30:17;;;;;;;6.50;4.97;;;;;;;15.07;60.38;97510.09;5009178;28;20196;-70
2023/05/20 03:32:43;;;;;;;5.67;5.17;;;;;;;15.09;60.29;97501.03;5018616;28;20179;-70
2023/05/20 03:35:09;;;;;;;6.23;5.50;;;;;;;15.10;60.02;97504.47;5017385;28;20890;-70
2023/05/20 03:37:35;;;;;;;5.73;5.13;;;;;;;15.09;59.95;97508.94;5016209;28;20537;-70
2023/05/20 03:40:00;;;;;;;10.70;5.27;;;;;;;15.04;60.19;97512.13;5040830;28;20539;-70
2023/05/20 03:42:26;;;;;;;5.90;5.27;;;;;;;15.04;60.14;97511.28;4997728;28;20445;-69
2023/05/20 03:44:51;;;;;;;8.80;5.20;;;;;;;15.06;60.07;97519.84;5012372;28;20742;-70
2023/05/20 03:47:17;;;;;;;6.00;4.30;;;;;;;15.06;60.25;97519.84;5008435;28;20192;-69
2023/05/20 03:49:42;;;;;;;6.17;4.73;;;;;;;15.04;60.29;97521.84;5007331;28;20298;-69
2023/05/20 03:52:07;;;;;;;7.97;5.03;;;;;;;15.05;60.33;97523.47;5006994;28;20280;-69
2023/05/20 03:54:34;;;;;;;5.73;5.03;;;;;;;15.05;60.44;97520.84;5007684;28;20298;-69
2023/05/20 03:57:01;;;;;;;8.20;4.90;;;;;;;15.05;60.57;97518.19;5009928;28;20711;-70
2023/05/20 03:59:27;;;;;;;5.87;4.97;;;;;;;15.01;60.97;97522.19;5049057;28;20802;-70
2023/05/20 04:01:53;;;;;;;6.63;5.03;;;;;;;15.03;60.95;97515.75;5013881;28;20435;-69
2023/05/20 04:04:18;;;;;;;6.73;5.40;;;;;;;15.00;61.13;97523.16;5013104;28;20238;-68
2023/05/20 04:06:43;;;;;;;5.57;5.00;;;;;;;15.00;61.09;97513.44;5011708;28;20778;-70
2023/05/20 04:09:10;;;;;;;5.40;4.90;;;;;;;15.04;61.27;97514.75;5010074;28;20192;-70
2023/05/20 04:11:35;;;;;;;7.07;5.63;;;;;;;15.09;60.98;97518.69;5012170;28;20262;-69
2023/05/20 04:14:01;;;;;;;11.53;5.30;;;;;;;15.08;61.02;97515.22;5018548;28;20516;-69
2023/05/20 04:16:28;;;;;;;8.93;5.53;;;;;;;15.09;61.19;97518.69;5014562;28;20193;-73
2023/05/20 04:18:53;;;;;;;6.27;5.67;;;;;;;15.03;61.33;97510.47;5025473;28;20198;-69
2023/05/20 04:21:19;;;;;;;7.03;4.70;;;;;;;15.06;61.40;97511.94;5019427;28;20936;-69
2023/05/20 04:23:44;;;;;;;7.53;5.97;;;;;;;15.08;61.29;97511.75;5014846;28;20215;-70
2023/05/20 04:26:09;;;;;;;6.57;5.37;;;;;;;15.12;61.13;97508.59;5016644;28;20657;-70
2023/05/20 04:28:36;;;;;;;8.00;5.43;;;;;;;15.13;61.40;97518.16;5015488;28;20253;-70
2023/05/20 04:31:03;;;;;;;5.63;5.13;;;;;;;15.19;61.44;97508.72;5014229;28;20193;-70
2023/05/20 04:33:29;;;;;;;8.50;5.17;;;;;;;15.23;61.44;97499.47;5017659;28;20446;-71
2023/05/20 04:35:57;;;;;;;6.40;5.20;;;;;;;15.26;61.55;97493.00;5050586;28;20438;-70
2023/05/20 04:38:28;;;;;;;7.80;5.57;;;;;;;15.28;61.25;97488.38;5004102;28;21018;-69
2023/05/20 04:41:00;;;;;;;8.47;5.87;;;;;;;15.33;61.39;97491.31;5016701;28;20418;-70
2023/05/20 04:43:28;;;;;;;6.80;5.27;;;;;;;15.33;61.26;97489.47;5017207;28;20555;-69
2023/05/20 04:45:54;;;;;;;6.40;5.60;;;;;;;15.36;61.28;97489.13;5016110;28;20440;-69
2023/05/20 04:48:21;;;;;;;7.80;5.13;;;;;;;15.40;61.20;97489.59;5020837;28;20431;-69
2023/05/20 04:50:50;;;;;;;5.20;4.70;;;;;;;15.41;61.23;97493.88;5014584;28;20430;-70
2023/05/20 04:53:16;;;;;;;5.93;5.33;;;;;;;15.44;60.99;97503.25;5004590;28;20458;-70
2023/05/20 04:55:42;;;;;;;5.80;5.20;;;;;;;15.42;61.15;97497.38;5010236;28;20428;-70
2023/05/20 04:58:14;;;;;;;6.53;5.60;;;;;;;15.44;61.46;97496.19;5020506;28;20947;-69
2023/05/20 05:00:43;;;;;;;5.93;5.03;;;;;;;15.49;61.15;97496.50;5023191;28;20594;-70
2023/05/20 05:03:09;;;;;;;8.30;5.40;;;;;;;15.55;61.09;97499.41;5015005;28;20547;-70
2023/05/20 05:05:38;;;;;;;7.53;5.53;;;;;;;15.58;61.10;97502.50;5009392;28;20474;-70
2023/05/20 05:08:04;;;;;;;7.00;5.40;;;;;;;15.60;61.04;97502.34;5013860;28;20583;-70
2023/05/20 05:10:30;;;;;;;5.63;5.10;;;;;;;15.63;61.10;97499.34;5024270;28;20430;-70
2023/05/20 05:12:56;;;;;;;5.70;4.90;;;;;;;15.66;61.14;97504.25;5020201;28;20453;-72
2023/05/20 05:15:21;;;;;;;6.73;5.07;;;;;;;15.72;60.96;97502.72;5020507;28;20674;-69
2023/05/20 05:17:47;;;;;;;8.27;5.33;;;;;;;15.73;60.71;97494.66;5014380;28;20199;-70
2023/05/20 05:20:12;;;;;;;5.60;5.10;;;;;;;15.76;60.92;97488.97;5017524;28;20275;-71
2023/05/20 05:22:40;;;;;;;7.93;5.80;;;;;;;15.81;60.81;97491.13;5010256;28;20299;-70
2023/05/20 05:25:06;;;;;;;6.33;5.10;;;;;;;15.86;60.67;97487.97;5016728;28;20196;-70
2023/05/20 05:27:32;;;;;;;5.63;5.10;;;;;;;15.89;60.46;97477.00;5040627;28;20444;-68
2023/05/20 05:29:57;;;;;;;7.07;5.97;;;;;;;15.92;60.18;97476.66;5008524;28;20447;-68
2023/05/20 05:32:22;;;;;;;5.60;5.10;;;;;;;15.95;60.08;97474.47;5018063;28;20242;-68
2023/05/20 05:34:48;;;;;;;8.33;5.20;;;;;;;16.03;59.97;97478.06;5009880;28;20760;-68
2023/05/20 05:37:13;;;;;;;8.47;5.43;;;;;;;16.08;59.89;97481.78;5016036;28;20354;-69
2023/05/20 05:39:39;;;;;;;6.27;5.50;;;;;;;16.14;59.52;97474.97;5008324;28;20196;-68
2023/05/20 05:42:04;;;;;;;6.90;5.70;;;;;;;16.24;59.79;97474.72;5016702;28;20196;-70
2023/05/20 05:44:30;;;;;;;9.83;5.90;;;;;;;16.38;59.75;97476.50;5018857;28;20238;-69
2023/05/20 05:46:55;;;;;;;6.90;5.43;;;;;;;16.43;59.20;97465.41;5015675;28;20283;-69
2023/05/20 05:49:21;;;;;;;6.27;5.67;;;;;;;16.46;59.08;97472.94;5022117;28;20214;-69
2023/05/20 05:51:46;;;;;;;7.47;6.00;;;;;;;16.53;59.03;97476.53;5006595;28;20192;-69
2023/05/20 05:54:12;;;;;;;9.20;5.73;;;;;;;16.54;58.79;97469.38;5015619;28;20216;-71
2023/05/20 05:56:37;;;;;;;7.73;5.97;;;;;;;16.60;58.23;97473.97;5012860;28;20800;-68
2023/05/20 05:59:03;;;;;;;7.53;5.90;;;;;;;16.65;57.87;97460.97;5015616;28;20276;-69
2023/05/20 06:01:29;;;;;;;6.37;5.70;;;;;;;16.71;57.55;97465.53;5019158;28;20192;-71
2023/05/20 06:03:55;;;;;;;6.43;5.77;;;;;;;16.78;57.40;97475.38;5007503;28;21002;-70
2023/05/20 06:06:20;;;;;;;6.90;5.90;;;;;;;16.80;57.58;97471.56;5009471;28;20202;-70
2023/05/20 06:08:45;;;;;;;6.50;5.57;;;;;;;16.86;57.30;97464.69;5009589;28;20287;-69
2023/05/20 06:11:11;;;;;;;6.80;5.70;;;;;;;16.92;57.69;97471.88;5008994;28;20275;-70
2023/05/20 06:13:36;;;;;;;7.00;5.80;;;;;;;16.94;57.20;97469.91;5014352;28;20223;-69
2023/05/20 06:16:02;;;;;;;6.90;6.13;;;;;;;17.00;57.13;97468.34;5017924;28;20203;-69
2023/05/20 06:18:28;;;;;;;8.60;5.73;;;;;;;17.04;56.94;97461.66;5015312;28;20200;-69
2023/05/20 06:20:54;;;;;;;7.77;5.83;;;;;;;17.11;57.13;97467.03;5012736;28;20571;-70
2023/05/20 06:23:20;;;;;;;7.93;5.73;;;;;;;17.16;57.25;97457.53;5011771;28;20227;-70
2023/05/20 06:25:46;;;;;;;8.00;5.80;;;;;;;17.24;57.12;97455.75;5013948;28;20511;-72
2023/05/20 06:28:12;;;;;;;7.70;6.10;;;;;;;17.26;56.83;97467.81;5011075;28;20224;-71
2023/05/20 06:30:37;;;;;;;7.20;5.77;;;;;;;17.34;56.81;97461.53;5014464;28;20797;-70
2023/05/20 06:33:02;;;;;;;7.80;5.93;;;;;;;17.39;56.79;97456.50;5011873;28;20303;-70
2023/05/20 06:35:28;;;;;;;6.67;6.00;;;;;;;17.48;56.79;97460.66;5018369;28;20266;-69
2023/05/20 06:37:54;;;;;;;5.90;5.40;;;;;;;17.53;56.25;97462.75;5012270;28;20192;-70
2023/05/20 06:40:19;;;;;;;6.90;5.80;;;;;;;17.61;56.38;97453.84;5012619;28;20192;-70
2023/05/20 06:42:45;;;;;;;7.10;6.33;;;;;;;17.65;56.09;97455.91;5008638;28;20216;-71
2023/05/20 06:45:10;;;;;;;8.43;6.57;;;;;;;17.68;55.79;97443.28;5015423;28;20203;-70
2023/05/20 06:47:36;;;;;;;12.10;6.50;;;;;;;17.69;56.00;97447.59;5016196;28;20193;-71
2023/05/20 06:50:02;;;;;;;7.33;6.27;;;;;;;17.73;56.06;97446.19;5008858;28;20200;-69
2023/05/20 06:52:27;;;;;;;6.60;5.90;;;;;;;17.79;56.04;97440.13;5008172;28;20227;-70
2023/05/20 06:54:53;;;;;;;7.87;6.60;;;;;;;17.84;55.55;97443.00;5008826;28;20215;-71
2023/05/20 06:57:18;;;;;;;11.20;5.80;;;;;;;17.88;55.50;97438.97;5025980;28;20630;-71
2023/05/20 06:59:43;;;;;;;16.90;6.03;;;;;;;17.93;55.87;97439.19;5009169;28;20207;-71
2023/05/20 07:02:10;;;;;;;7.33;6.30;;;;;;;17.98;55.53;97438.66;5008278;28;20269;-70
2023/05/20 07:04:36;;;;;;;11.40;7.07;;;;;;;18.00;55.47;97444.56;5008156;28;20228;-71
2023/05/20 07:07:01;;;;;;;8.47;6.27;;;;;;;18.06;55.32;97429.72;5008139;28;20569;-70
2023/05/20 07:09:26;;;;;;;7.10;6.50;;;;;;;18.11;55.64;97428.13;5008243;28;20576;-69
2023/05/20 07:11:52;;;;;;;9.50;6.60;;;;;;;18.18;55.09;97428.16;4990875;28;20287;-70
2023/05/20 07:14:18;;;;;;;8.67;6.50;;;;;;;18.22;54.89;97424.09;5007826;28;20208;-70
2023/05/20 07:16:43;;;;;;;7.83;6.50;;;;;;;18.35;54.98;97414.59;5014533;28;20191;-72
2023/05/20 07:19:08;;;;;;;7.87;6.00;;;;;;;18.44;54.75;97410.75;5017116;28;20741;-71
2023/05/20 07:21:35;;;;;;;7.50;6.60;;;;;;;18.53;54.31;97403.44;5014965;28;20200;-70
2023/05/20 07:24:00;;;;;;;7.17;5.50;;;;;;;18.58;54.20;97407.13;5015720;28;20218;-70
2023/05/20 07:26:25;;;;;;;6.63;5.97;;;;;;;18.64;53.97;97410.81;5018460;28;20435;-69
2023/05/20 07:28:51;;;;;;;7.00;6.30;;;;;;;18.65;53.98;97409.81;5014072;28;20228;-71
2023/05/20 07:31:16;;;;;;;6.80;6.20;;;;;;;18.71;53.62;97408.19;5000107;28;20274;-71
2023/05/20 07:33:42;;;;;;;7.23;6.47;;;;;;;18.70;53.16;97409.19;5010873;28;20203;-71
2023/05/20 07:36:07;;;;;;;10.33;7.30;;;;;;;18.72;53.48;97413.28;5013615;28;20192;-72
2023/05/20 07:38:33;;;;;;;7.30;6.03;;;;;;;18.91;53.15;97404.75;5007853;28;20283;-71
2023/05/20 07:40:58;;;;;;;6.80;6.10;;;;;;;19.07;53.09;97404.41;5042558;28;20282;-71
2023/05/20 07:43:24;;;;;;;7.93;6.10;;;;;;;19.25;52.79;97406.47;4999643;28;20208;-70
2023/05/20 07:45:49;;;;;;;7.07;6.37;;;;;;;19.43;51.78;97397.91;5013125;28;20653;-72
2023/05/20 07:48:15;;;;;;;6.77;6.07;;;;;;;19.56;50.96;97393.59;5013261;28;20233;-72
2023/05/20 07:50:40;;;;;;;6.67;6.03;;;;;;;19.75;50.83;97394.63;5014305;28;20236;-73
2023/05/20 07:53:05;;;;;;;6.90;5.80;;;;;;;19.91;50.10;97402.19;5011921;28;20246;-72
2023/05/20 07:55:38;;;;;;;6.90;6.30;;;;;;;19.94;49.71;97392.97;5013836;28;20208;-71
2023/05/20 07:58:03;;;;;;;7.03;6.33;;;;;;;19.98;49.53;97388.06;5010400;28;20203;-70
2023/05/20 08:00:29;;;;;;;7.23;5.93;;;;;;;19.98;49.40;97388.06;5010491;28;20431;-70
2023/05/20 08:02:54;;;;;;;11.43;5.50;;;;;;;19.95;49.76;97390.13;5015531;28;20287;-73
2023/05/20 08:05:21;;;;;;;6.67;5.80;;;;;;;19.92;49.64;97387.03;5011052;28;20717;-72
2023/05/20 08:07:46;;;;;;;6.90;6.20;;;;;;;19.88;50.26;97393.81;5013438;28;20191;-72
2023/05/20 08:10:12;;;;;;;7.30;6.23;;;;;;;19.84;50.50;97387.25;5013875;28;20427;-72
2023/05/20 08:12:37;;;;;;;6.30;5.70;;;;;;;19.77;50.17;97393.41;5012339;28;20215;-72
2023/05/20 08:15:04;;;;;;;6.00;5.40;;;;;;;19.74;50.50;97393.81;5014240;28;20211;-71
2023/05/20 08:17:29;;;;;;;6.10;5.53;;;;;;;19.72;50.45;97405.69;5010489;28;20193;-71
2023/05/20 08:19:55;;;;;;;5.73;5.20;;;;;;;19.63;50.12;97397.09;5016537;28;20848;-72
2023/05/20 08:22:20;;;;;;;6.47;5.77;;;;;;;19.58;51.16;97397.72;5023819;28;22220;-69
2023/05/20 08:24:45;;;;;;;6.43;5.73;;;;;;;19.55;50.63;97402.59;5020100;28;20219;-70
2023/05/20 08:33:55;;;;;;;7.57;6.00;;;;;;;19.59;50.67;97414.47;5000788;28;20462;-70
2023/05/20 08:36:20;;;;;;;9.63;6.60;;;;;;;19.58;50.63;97410.19;5013499;28;20947;-70
2023/05/20 08:38:46;;;;;;;10.53;6.20;;;;;;;19.67;50.43;97408.13;5006846;28;20192;-70
2023/05/20 08:41:11;;;;;;;11.10;6.27;;;;;;;19.74;50.86;97407.09;5011764;28;20191;-70
2023/05/20 08:43:37;;;;;;;7.53;5.60;;;;;;;19.76;50.71;97407.72;5009811;28;20226;-71
2023/05/20 08:46:05;;;;;;;6.37;5.77;;;;;;;19.79;50.67;97412.59;5028641;28;20275;-70
2023/05/20 08:48:30;;;;;;;6.13;5.37;;;;;;;19.84;50.55;97404.03;5004722;28;20276;-69
2023/05/20 08:50:56;;;;;;;6.50;5.80;;;;;;;19.91;50.17;97409.38;5014208;28;20529;-71
2023/05/20 08:53:22;;;;;;;7.80;5.40;;;;;;;20.02;50.37;97411.41;5015876;28;20219;-70
2023/05/20 08:56:01;;;;;;;6.27;5.67;;;;;;;20.10;49.94;97402.34;5012941;28;20715;-71
2023/05/20 08:58:28;;;;;;;6.93;5.57;;;;;;;20.23;49.90;97397.00;5006953;28;20659;-72
2023/05/20 09:00:53;;;;;;;7.10;5.70;;;;;;;20.40;49.77;97404.53;5011988;28;20803;-71
2023/05/20 09:03:19;;;;;;;6.83;5.50;;;;;;;20.48;49.44;97398.94;5013265;28;20474;-70
2023/05/20 09:05:46;;;;;;;6.90;6.23;;;;;;;20.52;48.25;97396.69;5010444;28;20723;-70
2023/05/20 09:08:11;;;;;;;6.50;5.90;;;;;;;20.82;48.29;97389.00;5009208;28;20662;-71
2023/05/20 09:10:41;;;;;;;7.57;5.50;;;;;;;21.16;48.07;97376.28;5018712;28;20484;-70
2023/05/20 09:13:08;;;;;;;7.00;5.70;;;;;;;21.45;47.45;97367.84;5011676;28;20244;-70
2023/05/20 09:15:34;;;;;;;6.60;6.00;;;;;;;21.58;46.70;97374.91;5006595;28;20447;-71
2023/05/20 09:18:03;;;;;;;6.97;6.27;;;;;;;21.61;46.08;97378.00;5020723;28;20488;-70
2023/05/20 09:20:30;;;;;;;5.97;5.47;;;;;;;21.63;45.43;97377.75;5021412;28;20991;-70
2023/05/20 09:23:04;;;;;;;11.53;5.70;;;;;;;21.64;45.63;97384.72;5010520;28;20549;-70
2023/05/20 09:25:29;;;;;;;6.63;6.03;;;;;;;21.73;45.06;97382.59;5021095;28;20862;-70
2023/05/20 09:27:55;;;;;;;6.40;5.80;;;;;;;21.86;45.38;97382.47;5017302;28;20527;-71
2023/05/20 09:30:21;;;;;;;7.33;6.10;;;;;;;21.82;45.10;97383.94;5024631;28;20189;-72
2023/05/20 09:32:55;;;;;;;6.00;5.50;;;;;;;21.69;45.02;97384.06;5014590;28;20522;-71
2023/05/20 09:35:25;;;;;;;10.70;5.70;;;;;;;21.73;45.36;97378.09;5014994;28;20466;-71
2023/05/20 09:37:57;;;;;;;7.33;5.80;;;;;;;21.78;45.75;97372.91;5027689;28;20435;-70
2023/05/20 09:40:27;;;;;;;9.00;5.60;;;;;;;21.84;45.15;97376.53;5010812;28;20439;-71
2023/05/20 09:42:57;;;;;;;8.00;6.43;;;;;;;21.89;45.31;97371.38;5011334;28;21105;-71
2023/05/20 09:45:23;;;;;;;11.00;5.63;;;;;;;21.97;45.21;97370.28;5009895;28;20823;-71
2023/05/20 09:47:52;;;;;;;5.57;5.00;;;;;;;22.00;45.63;97374.34;5024667;28;20441;-71
2023/05/20 09:50:22;;;;;;;6.97;6.37;;;;;;;22.02;45.25;97373.06;5013880;28;20200;-72
2023/05/20 09:52:48;;;;;;;11.27;5.73;;;;;;;22.19;45.24;97364.47;5023277;28;20434;-71
2023/05/20 09:55:18;;;;;;;11.80;6.43;;;;;;;22.45;44.99;97359.88;5011224;28;20521;-71
2023/05/20 09:57:45;;;;;;;10.67;6.07;;;;;;;22.54;44.97;97366.53;5007994;28;20419;-71
2023/05/20 10:00:12;;;;;;;10.33;5.57;;;;;;;22.55;43.83;97363.66;5005696;28;20458;-72
2023/05/20 10:02:42;;;;;;;9.40;5.40;;;;;;;22.64;43.68;97358.00;5013896;28;20443;-72
2023/05/20 10:05:13;;;;;;;8.03;6.23;;;;;;;22.77;43.62;97349.81;5021747;28;20462;-71
2023/05/20 10:08:09;;;;;;;5.80;5.30;;;;;;;22.96;44.08;97347.03;5036425;28;20974;-70
2023/05/20 10:11:20;;;;;;;6.80;6.03;;;;;;;23.35;42.50;97344.81;5009472;28;20511;-71
2023/05/20 10:14:10;;;;;;;6.33;5.73;;;;;;;23.60;41.84;97338.44;4997265;28;20449;-70
2023/05/20 10:16:50;;;;;;;6.60;6.00;;;;;;;23.87;41.01;97335.28;5018036;28;20430;-73
2023/05/20 10:19:22;;;;;;;7.30;5.20;;;;;;;23.95;41.07;97342.94;5007532;28;20431;-70
2023/05/20 10:22:00;;;;;;;7.13;5.47;;;;;;;24.04;40.97;97335.38;5006178;28;20427;-71
2023/05/20 10:24:39;;;;;;;8.47;5.90;;;;;;;24.22;41.01;97326.38;5018159;28;20478;-71
2023/05/20 10:27:15;;;;;;;5.07;4.67;;;;;;;24.44;40.60;97333.78;5012467;28;20454;-70
2023/05/20 10:29:45;;;;;;;7.00;5.70;;;;;;;24.65;40.16;97330.41;5012826;28;20986;-71
2023/05/20 10:32:11;;;;;;;6.77;5.20;;;;;;;24.72;39.59;97329.47;5011059;28;20438;-70
2023/05/20 10:34:47;;;;;;;6.73;5.77;;;;;;;24.68;39.71;97332.63;5008533;28;20454;-70
2023/05/20 10:37:26;;;;;;;5.93;5.30;;;;;;;24.67;38.80;97340.88;5020910;28;20191;-71
2023/05/20 10:39:51;;;;;;;5.87;5.37;;;;;;;24.66;38.61;97332.03;5007916;28;20501;-71
2023/05/20 10:42:27;;;;;;;5.13;4.40;;;;;;;24.59;39.02;97333.25;5019769;28;20430;-72
2023/05/20 10:44:52;;;;;;;7.77;5.47;;;;;;;24.39;39.49;97332.63;5011824;28;20242;-71
2023/05/20 10:47:18;;;;;;;8.40;4.97;;;;;;;24.29;39.31;97326.25;5014177;28;20931;-71
2023/05/20 10:49:47;;;;;;;5.20;4.70;;;;;;;24.26;40.01;97327.53;5007651;28;20641;-72
2023/05/20 10:52:13;;;;;;;5.57;5.17;;;;;;;24.36;40.15;97319.69;5015663;28;20203;-71
2023/05/20 10:55:17;;;;;;;8.60;5.23;;;;;;;24.44;40.60;97315.03;5017289;28;20447;-71
2023/05/20 10:57:44;;;;;;;6.50;5.17;;;;;;;24.69;39.85;97309.34;5001537;28;20199;-71
2023/05/20 11:00:10;;;;;;;8.50;6.00;;;;;;;24.90;39.43;97301.63;5013788;28;20431;-71
2023/05/20 11:02:36;;;;;;;11.70;5.30;;;;;;;25.09;39.16;97299.53;5013954;28;20443;-72
2023/05/20 11:05:03;;;;;;;5.40;4.90;;;;;;;25.36;38.37;97299.69;5009048;28;20541;-72
2023/05/20 11:07:30;;;;;;;5.40;4.90;;;;;;;25.36;37.46;97296.19;5016290;28;20188;-71
2023/05/20 11:09:57;;;;;;;5.97;4.77;;;;;;;25.25;38.04;97295.25;5006958;28;20431;-70
2023/05/20 11:12:24;;;;;;;5.53;5.03;;;;;;;25.07;38.06;97294.44;5006944;28;20583;-72
2023/05/20 11:14:49;;;;;;;5.53;5.03;;;;;;;24.99;38.07;97284.13;5015938;28;20502;-70
2023/05/20 11:17:15;;;;;;;5.17;4.67;;;;;;;24.88;38.50;97282.34;5010437;28;20478;-72
2023/05/20 11:19:40;;;;;;;5.53;4.70;;;;;;;24.74;37.94;97279.13;5008514;28;20555;-71
2023/05/20 11:22:07;;;;;;;5.60;5.07;;;;;;;24.83;38.63;97272.31;5024903;28;20742;-71
2023/05/20 11:24:32;;;;;;;6.13;5.20;;;;;;;24.95;39.08;97274.94;5022848;28;20219;-70
2023/05/20 11:26:59;;;;;;;6.67;4.83;;;;;;;25.05;38.35;97274.28;5011485;28;20497;-71
2023/05/20 11:29:25;;;;;;;6.77;5.20;;;;;;;25.24;38.09;97269.47;5015521;28;20192;-71
2023/05/20 11:31:51;;;;;;;5.30;4.80;;;;;;;25.30;37.67;97271.16;5011350;28;20508;-70
2023/05/20 11:34:20;;;;;;;5.10;4.60;;;;;;;25.46;37.37;97266.84;5016764;28;20459;-70
2023/05/20 11:36:46;;;;;;;5.43;4.93;;;;;;;25.66;37.92;97268.22;5009036;28;20196;-71